Time;durP1;ratioP1;P1;durP2;ratioP2;P2;SDS_P1;SDS_P2;PMS_P1;PMS_P2;Temp;Humidity;BMP_temperature;BMP_pressure;BME280_temperature;BME280_humidity;BME280_pressure;Samples;Min_cycle;Max_cycle;Signal;HPM_P1;HPM_P2
2022/12/08 00:00:47;;;;;;;25.37;13.53;;;1.80;99.90;;;;;;5053489;28;20213;-64
2022/12/08 00:03:14;;;;;;;34.53;15.80;;;1.80;99.90;;;;;;5050928;28;20203;-65
2022/12/08 00:11:13;;;;;;;28.67;15.30;;;1.80;99.90;;;;;;5053304;28;20184;-65
2022/12/08 00:13:41;;;;;;;30.53;15.83;;;1.90;99.90;;;;;;5051828;28;20205;-66
2022/12/08 00:16:09;;;;;;;27.23;14.70;;;1.90;99.90;;;;;;5052183;28;20197;-66
2022/12/08 00:18:36;;;;;;;28.10;14.70;;;1.90;99.90;;;;;;5053548;28;20201;-64
2022/12/08 00:21:04;;;;;;;28.90;15.30;;;2.00;99.90;;;;;;5053223;28;20209;-65
2022/12/08 00:23:31;;;;;;;30.00;15.93;;;2.00;99.90;;;;;;5053437;28;20208;-65
2022/12/08 00:26:02;;;;;;;27.43;14.83;;;2.00;99.90;;;;;;5052372;28;20221;-65
2022/12/08 00:28:28;;;;;;;27.33;15.10;;;2.00;99.90;;;;;;5053207;28;20212;-65
2022/12/08 00:30:57;;;;;;;24.87;14.13;;;2.00;99.90;;;;;;5053297;28;20208;-65
2022/12/08 00:33:23;;;;;;;26.93;14.43;;;2.00;99.90;;;;;;5051555;28;20225;-66
2022/12/08 00:35:50;;;;;;;23.90;14.27;;;2.00;99.90;;;;;;5052907;28;20197;-65
2022/12/08 00:38:17;;;;;;;24.37;14.33;;;2.00;99.90;;;;;;5052761;28;20677;-64
2022/12/08 00:40:45;;;;;;;26.77;15.43;;;2.00;99.90;;;;;;5053030;28;20666;-66
2022/12/08 00:43:11;;;;;;;22.80;13.73;;;2.00;99.90;;;;;;5051390;28;20209;-65
2022/12/08 00:45:38;;;;;;;31.37;16.13;;;2.10;99.90;;;;;;5051154;28;20791;-65
2022/12/08 00:48:07;;;;;;;25.57;15.83;;;2.10;99.90;;;;;;5052680;28;20575;-65
2022/12/08 00:50:34;;;;;;;27.37;15.43;;;2.00;99.90;;;;;;5052824;28;20205;-65
2022/12/08 00:53:01;;;;;;;34.20;16.77;;;2.00;99.90;;;;;;5049781;28;20205;-66
2022/12/08 00:55:27;;;;;;;27.23;15.90;;;2.00;99.90;;;;;;5052910;28;20632;-66
2022/12/08 00:57:54;;;;;;;27.73;16.30;;;2.00;99.90;;;;;;5052468;28;20631;-65
2022/12/08 01:00:21;;;;;;;35.90;19.37;;;2.00;99.90;;;;;;5052476;28;20560;-66
2022/12/08 01:02:48;;;;;;;37.67;20.87;;;2.00;99.90;;;;;;5051041;28;20202;-65
2022/12/08 01:05:16;;;;;;;30.37;17.47;;;2.00;99.90;;;;;;5051797;28;20243;-65
2022/12/08 01:07:43;;;;;;;32.00;18.30;;;2.00;99.90;;;;;;5052352;28;20205;-65
2022/12/08 01:10:10;;;;;;;30.57;17.53;;;2.00;99.90;;;;;;5052246;28;20202;-64
2022/12/08 01:12:36;;;;;;;32.10;17.77;;;2.10;99.90;;;;;;5051484;28;20198;-65
2022/12/08 06:46:15;;;;;;;445.17;46.63;;;0.20;99.90;;;;;;5126607;27;20565;-63
2022/12/08 06:48:43;;;;;;;332.90;42.07;;;0.80;99.90;;;;;;5127699;27;20218;-62
2022/12/08 06:51:11;;;;;;;72.37;27.50;;;0.90;99.90;;;;;;5127570;27;20202;-64
2022/12/08 06:53:39;;;;;;;78.27;27.93;;;0.90;99.90;;;;;;5130218;27;20203;-63
2022/12/08 06:56:06;;;;;;;83.00;29.13;;;1.00;99.90;;;;;;5130196;27;20672;-63
2022/12/08 06:58:33;;;;;;;57.07;24.87;;;1.10;99.90;;;;;;5130298;27;20653;-62
2022/12/08 07:01:04;;;;;;;146.80;30.33;;;1.20;99.90;;;;;;5129843;27;20222;-62
2022/12/08 07:03:32;;;;;;;87.30;28.63;;;1.30;99.90;;;;;;5109365;27;20659;-62
2022/12/08 07:05:59;;;;;;;158.67;31.80;;;1.20;99.90;;;;;;5108331;28;20227;-63
2022/12/08 07:08:26;;;;;;;71.27;26.70;;;1.20;99.90;;;;;;5107535;28;20211;-62
2022/12/08 07:10:53;;;;;;;50.90;22.97;;;1.10;99.90;;;;;;5106200;28;20203;-64
2022/12/08 07:13:19;;;;;;;48.93;24.80;;;1.20;99.90;;;;;;5088649;28;20204;-63
2022/12/08 07:15:46;;;;;;;72.70;25.07;;;1.30;99.90;;;;;;5105651;28;20218;-64
2022/12/08 07:18:13;;;;;;;51.10;23.07;;;1.40;99.90;;;;;;5109293;28;20206;-64
2022/12/08 07:20:41;;;;;;;79.13;24.13;;;1.40;99.90;;;;;;5109510;28;20204;-65
2022/12/08 07:23:08;;;;;;;146.27;28.90;;;1.50;99.90;;;;;;5109295;28;20994;-62
2022/12/08 07:25:35;;;;;;;62.00;23.60;;;1.40;99.90;;;;;;5107893;28;20650;-63
2022/12/08 07:28:08;;;;;;;54.07;24.63;;;1.30;99.90;;;;;;5108289;28;20208;-62
2022/12/08 07:30:35;;;;;;;76.33;26.97;;;1.30;99.90;;;;;;5108992;28;20195;-63
2022/12/08 07:33:03;;;;;;;47.13;23.93;;;1.30;99.90;;;;;;5108921;28;20476;-62
2022/12/08 07:35:30;;;;;;;51.63;24.93;;;1.40;99.90;;;;;;5108928;28;20295;-63
2022/12/08 07:37:58;;;;;;;50.80;25.40;;;1.50;99.90;;;;;;5108543;28;20203;-63
2022/12/08 07:40:25;;;;;;;100.83;30.27;;;1.60;99.90;;;;;;5108510;28;20203;-63
2022/12/08 07:42:52;;;;;;;52.37;25.70;;;1.60;99.90;;;;;;5099199;28;20566;-63
2022/12/08 07:45:18;;;;;;;53.63;25.00;;;1.60;99.90;;;;;;5095442;28;20245;-65
2022/12/08 07:47:45;;;;;;;50.60;24.97;;;1.70;99.90;;;;;;5108538;28;20210;-62
2022/12/08 07:50:12;;;;;;;49.47;25.00;;;1.80;99.90;;;;;;5088193;28;20226;-65
2022/12/08 07:52:39;;;;;;;65.37;26.77;;;1.80;99.90;;;;;;5088478;28;20487;-65
2022/12/08 07:55:08;;;;;;;48.27;24.37;;;1.80;99.90;;;;;;5099957;28;20203;-64
2022/12/08 07:57:35;;;;;;;64.83;26.23;;;1.80;99.90;;;;;;5092863;28;20628;-65
2022/12/08 08:00:02;;;;;;;56.57;24.83;;;1.90;99.90;;;;;;5093424;28;20211;-65
2022/12/08 08:02:29;;;;;;;86.17;25.13;;;1.80;99.90;;;;;;5094899;28;20200;-63
2022/12/08 08:04:56;;;;;;;61.67;24.83;;;1.80;99.90;;;;;;5090369;28;20219;-63
2022/12/08 08:07:22;;;;;;;80.47;26.20;;;1.80;99.90;;;;;;5078781;28;20207;-63
2022/12/08 08:09:49;;;;;;;44.73;24.37;;;1.80;99.90;;;;;;5092363;28;20196;-63
2022/12/08 08:12:17;;;;;;;59.37;26.30;;;1.80;99.90;;;;;;5094332;28;20214;-65
2022/12/08 08:14:44;;;;;;;107.20;29.30;;;1.80;99.90;;;;;;5090994;28;20203;-63
2022/12/08 08:17:11;;;;;;;68.40;26.00;;;1.90;99.90;;;;;;5094314;28;20196;-63
2022/12/08 08:19:37;;;;;;;86.07;25.70;;;1.90;99.90;;;;;;5090690;28;20215;-65
2022/12/08 08:22:04;;;;;;;45.83;23.47;;;2.00;99.90;;;;;;5080966;28;20204;-63
2022/12/08 08:24:31;;;;;;;64.27;25.60;;;2.00;99.90;;;;;;5093538;28;20226;-64
2022/12/08 08:26:58;;;;;;;58.47;24.40;;;2.00;99.90;;;;;;5093870;28;20563;-63
2022/12/08 08:29:26;;;;;;;48.80;22.93;;;2.00;99.90;;;;;;5094100;28;20196;-63
2022/12/08 08:31:53;;;;;;;67.87;24.20;;;2.00;99.90;;;;;;5076050;28;20200;-64
2022/12/08 11:46:52;;;;;;;160.23;35.67;;;0.70;99.90;;;;;;5581966;22;1302686;-67
2022/12/08 14:26:06;;;;;;;273.20;39.03;;;-0.30;99.90;;;;;;5087768;28;20546;-66
2022/12/08 14:28:33;;;;;;;128.33;30.47;;;-0.30;99.90;;;;;;5068286;28;20219;-68
2022/12/08 14:31:01;;;;;;;146.93;35.42;;;-0.20;99.90;;;;;;5662831;22;20777;-66
2022/12/08 14:33:27;;;;;;;234.57;36.57;;;-0.10;99.90;;;;;;5064856;28;20970;-66
2022/12/08 14:35:56;;;;;;;179.80;35.63;;;-0.10;99.90;;;;;;5062651;28;20201;-66
2022/12/08 14:38:25;;;;;;;164.60;42.70;;;0.00;99.90;;;;;;5068581;28;20769;-64
2022/12/08 14:41:02;;;;;;;393.90;47.23;;;0.10;99.90;;;;;;5068218;28;20221;-66
2022/12/08 14:43:31;;;;;;;222.60;36.00;;;0.20;99.90;;;;;;5067574;28;20207;-66
2022/12/08 14:46:01;;;;;;;557.37;57.47;;;0.20;99.90;;;;;;5068587;28;20312;-67
2022/12/08 14:48:41;;;;;;;282.23;44.97;;;0.20;99.90;;;;;;5068540;28;20189;-68
2022/12/08 14:51:15;;;;;;;346.07;50.77;;;0.20;99.90;;;;;;5048642;28;20271;-68
2022/12/08 14:53:45;;;;;;;298.57;47.77;;;0.20;99.90;;;;;;5048396;28;20202;-68
2022/12/08 14:56:20;;;;;;;146.17;37.77;;;0.20;99.90;;;;;;5048722;28;20213;-66
2022/12/08 14:58:50;;;;;;;364.50;46.73;;;0.20;99.90;;;;;;5048299;28;20205;-68
2022/12/08 15:01:22;;;;;;;291.10;40.27;;;0.20;99.90;;;;;;5067474;28;20201;-66
2022/12/08 15:03:49;;;;;;;208.83;36.97;;;0.20;99.90;;;;;;5068327;28;20186;-66
2022/12/08 15:06:16;;;;;;;239.70;38.63;;;0.30;99.90;;;;;;5068612;28;20204;-67
2022/12/08 15:08:57;;;;;;;346.40;43.90;;;0.30;99.90;;;;;;5068279;28;20205;-65
2022/12/08 15:11:32;;;;;;;169.97;35.97;;;0.30;99.90;;;;;;5052018;28;20239;-66
2022/12/08 15:14:00;;;;;;;175.53;35.77;;;0.40;99.90;;;;;;5054649;28;20672;-67
2022/12/08 15:16:30;;;;;;;288.27;46.07;;;0.40;99.90;;;;;;5066755;28;20548;-69
2022/12/08 15:19:14;;;;;;;166.53;39.37;;;0.50;99.90;;;;;;5067829;28;20531;-69
2022/12/08 15:21:41;;;;;;;214.97;37.93;;;0.50;99.90;;;;;;5068111;28;20189;-67
2022/12/08 15:24:11;;;;;;;296.07;42.70;;;0.50;99.90;;;;;;5068473;28;20688;-66
2022/12/08 15:26:41;;;;;;;405.77;48.37;;;0.50;99.90;;;;;;5068424;28;20190;-66
2022/12/08 15:29:18;;;;;;;429.43;46.93;;;0.50;99.90;;;;;;5067902;28;20195;-66
2022/12/08 15:31:45;;;;;;;483.40;53.17;;;0.50;99.90;;;;;;5067614;28;20279;-66
2022/12/08 15:34:12;;;;;;;261.40;47.83;;;0.50;99.90;;;;;;5068026;28;20211;-66
2022/12/08 15:36:41;;;;;;;352.70;51.37;;;0.50;99.90;;;;;;5058464;28;20211;-66
2022/12/08 15:39:21;;;;;;;525.00;70.37;;;0.50;99.90;;;;;;5055041;28;20662;-68
2022/12/08 15:41:48;;;;;;;356.27;51.90;;;0.50;99.90;;;;;;5054569;28;20193;-66
2022/12/08 15:44:16;;;;;;;278.10;44.57;;;0.50;99.90;;;;;;5054474;28;20225;-68
2022/12/08 15:46:42;;;;;;;216.80;49.90;;;0.50;99.90;;;;;;5054732;28;20679;-67
2022/12/08 15:49:16;;;;;;;666.47;65.40;;;0.50;99.90;;;;;;5054880;28;20581;-66
2022/12/08 15:51:43;;;;;;;310.03;44.73;;;0.50;99.90;;;;;;5054563;28;20194;-66
2022/12/08 15:54:10;;;;;;;348.00;54.03;;;0.50;99.90;;;;;;5054781;28;20209;-67
2022/12/08 15:56:40;;;;;;;357.67;62.43;;;0.50;99.90;;;;;;5054605;28;20205;-67
2022/12/08 15:59:07;;;;;;;292.87;50.00;;;0.60;99.90;;;;;;5054333;28;20243;-66
2022/12/08 16:01:35;;;;;;;316.30;43.53;;;0.60;99.90;;;;;;5054396;28;20211;-66
2022/12/08 16:04:02;;;;;;;229.77;41.33;;;0.70;99.90;;;;;;5054260;28;20202;-66
2022/12/08 16:06:29;;;;;;;537.37;54.37;;;0.70;99.90;;;;;;5054298;28;20705;-67
2022/12/08 16:08:56;;;;;;;514.47;49.47;;;0.70;99.90;;;;;;5054352;28;20300;-67
2022/12/08 16:14:06;;;;;;;282.47;45.03;;;0.70;99.90;;;;;;5054130;28;20227;-67
2022/12/08 16:16:35;;;;;;;259.90;47.17;;;0.70;99.90;;;;;;5052406;28;20198;-67
2022/12/08 16:19:01;;;;;;;404.10;50.43;;;0.70;99.90;;;;;;5043205;28;20671;-67
2022/12/08 16:21:29;;;;;;;174.87;44.80;;;0.70;99.90;;;;;;5053471;28;20693;-67
2022/12/08 16:23:56;;;;;;;434.23;59.20;;;0.70;99.90;;;;;;5054164;28;20645;-69
2022/12/08 16:26:23;;;;;;;345.63;56.60;;;0.70;99.90;;;;;;5054462;28;20225;-67
2022/12/08 16:28:50;;;;;;;480.83;60.63;;;0.80;99.90;;;;;;5053210;28;20258;-67
2022/12/08 16:31:17;;;;;;;635.67;70.07;;;0.80;99.90;;;;;;5053311;28;20233;-69
2022/12/08 16:33:45;;;;;;;247.60;46.43;;;0.80;99.90;;;;;;5053409;28;20221;-66
2022/12/08 16:36:12;;;;;;;316.17;46.83;;;0.70;99.90;;;;;;5053410;28;20197;-67
2022/12/08 16:38:39;;;;;;;585.30;56.33;;;0.80;99.90;;;;;;5053334;28;20220;-67
2022/12/08 16:43:51;;;;;;;374.97;44.77;;;0.70;99.90;;;;;;5033634;28;20197;-66
2022/12/08 16:46:22;;;;;;;160.50;35.40;;;0.70;99.90;;;;;;5033460;28;20230;-67
2022/12/08 16:48:50;;;;;;;421.67;49.13;;;0.70;99.90;;;;;;5032635;28;20190;-66
2022/12/08 16:51:18;;;;;;;141.93;33.87;;;0.70;99.90;;;;;;5049577;28;20209;-66
2022/12/08 16:53:45;;;;;;;254.70;47.30;;;0.70;99.90;;;;;;5053314;28;20251;-67
2022/12/08 16:56:16;;;;;;;122.00;34.23;;;0.70;99.90;;;;;;5049687;28;20689;-68
2022/12/08 16:58:43;;;;;;;112.83;36.80;;;0.70;99.90;;;;;;5049716;28;20646;-68
2022/12/08 17:01:12;;;;;;;315.50;53.80;;;0.70;99.90;;;;;;5051973;28;20201;-67
2022/12/08 17:03:39;;;;;;;132.20;36.83;;;0.70;99.90;;;;;;5052335;28;20255;-70
2022/12/08 17:06:10;;;;;;;153.73;34.90;;;0.70;99.90;;;;;;5051101;28;20759;-66
2022/12/08 17:08:37;;;;;;;186.53;38.10;;;0.70;99.90;;;;;;5052968;28;20193;-67
2022/12/08 17:11:07;;;;;;;191.37;36.17;;;0.70;99.90;;;;;;5052130;28;20596;-67
2022/12/08 17:13:34;;;;;;;119.90;29.70;;;0.80;99.90;;;;;;5053025;28;20308;-67
2022/12/08 17:16:01;;;;;;;148.03;31.30;;;0.70;99.90;;;;;;5053443;28;20205;-67
2022/12/08 17:18:28;;;;;;;153.13;34.07;;;0.70;99.90;;;;;;5048720;28;20567;-67
2022/12/08 17:20:55;;;;;;;171.30;33.77;;;0.70;99.90;;;;;;5051667;28;20205;-67
